Time;durP1;ratioP1;P1;durP2;ratioP2;P2;SDS_P1;SDS_P2;PMS_P1;PMS_P2;Temp;Humidity;BMP_temperature;BMP_pressure;BME280_temperature;BME280_humidity;BME280_pressure;Samples;Min_cycle;Max_cycle;Signal;HPM_P1;HPM_P2
2021/10/14 00:02:10;;;;;;;3.67;3.00;;;10.40;99.90;;;;;;4915236;29;20501;-80
2021/10/14 00:04:38;;;;;;;6.27;1.70;;;10.40;99.90;;;;;;4906138;29;20554;-83
2021/10/14 00:07:08;;;;;;;3.63;2.40;;;10.50;99.90;;;;;;4911904;29;20464;-81
2021/10/14 00:09:36;;;;;;;3.53;2.47;;;10.40;99.90;;;;;;4907447;29;20460;-81
2021/10/14 00:12:04;;;;;;;2.10;1.90;;;10.40;99.90;;;;;;4914840;29;20945;-81
2021/10/14 00:14:33;;;;;;;4.20;1.80;;;10.30;99.90;;;;;;4907923;29;20488;-81
2021/10/14 00:17:01;;;;;;;2.90;2.23;;;10.30;99.90;;;;;;4906549;29;20469;-81
2021/10/14 00:19:29;;;;;;;3.77;1.60;;;10.30;99.90;;;;;;4926791;29;20473;-82
2021/10/14 00:21:57;;;;;;;2.27;2.07;;;10.30;99.90;;;;;;4914117;29;20489;-81
2021/10/14 00:24:27;;;;;;;1.90;1.70;;;10.30;99.90;;;;;;4915307;29;20463;-81
2021/10/14 00:26:55;;;;;;;2.20;1.90;;;10.30;99.90;;;;;;4908680;29;20459;-80
2021/10/14 00:29:23;;;;;;;2.83;1.47;;;10.20;99.90;;;;;;4913024;29;20482;-80
2021/10/14 00:31:51;;;;;;;1.67;1.57;;;10.20;99.90;;;;;;4911654;29;20834;-80
2021/10/14 00:34:20;;;;;;;2.40;2.03;;;10.20;99.90;;;;;;4905565;29;20495;-81
2021/10/14 00:36:48;;;;;;;1.90;1.80;;;10.20;99.90;;;;;;4910342;29;20532;-81
2021/10/14 00:39:16;;;;;;;3.37;1.80;;;10.20;99.90;;;;;;4911298;29;20543;-82
2021/10/14 00:41:45;;;;;;;2.87;1.60;;;10.20;99.90;;;;;;4909889;29;20500;-82
2021/10/14 00:44:13;;;;;;;1.73;1.63;;;10.20;99.90;;;;;;4911706;29;20900;-82
2021/10/14 00:46:50;;;;;;;5.37;2.37;;;10.20;99.90;;;;;;4910913;29;20465;-81
2021/10/14 00:49:18;;;;;;;2.73;2.43;;;10.10;99.90;;;;;;4914171;29;20487;-81
2021/10/14 00:51:47;;;;;;;2.03;1.80;;;10.10;99.90;;;;;;4908507;29;20479;-81
2021/10/14 00:54:19;;;;;;;2.57;1.77;;;10.10;99.90;;;;;;4915622;29;20488;-81
2021/10/14 00:56:49;;;;;;;5.50;2.70;;;10.10;99.90;;;;;;4909082;29;20471;-82
2021/10/14 00:59:18;;;;;;;4.87;2.60;;;10.10;99.90;;;;;;4906592;29;20840;-82
2021/10/14 01:01:46;;;;;;;3.93;2.33;;;10.00;99.90;;;;;;4912423;29;20499;-81
2021/10/14 01:04:15;;;;;;;4.03;3.20;;;10.00;99.90;;;;;;4913159;29;20456;-82
2021/10/14 01:06:43;;;;;;;7.27;3.30;;;10.00;99.90;;;;;;4906947;29;21029;-81
2021/10/14 01:09:12;;;;;;;3.90;2.80;;;10.00;99.90;;;;;;4912546;29;21141;-81
2021/10/14 01:11:41;;;;;;;4.33;2.47;;;10.00;99.90;;;;;;4907121;29;20453;-81
2021/10/14 01:14:11;;;;;;;6.80;3.00;;;9.90;99.90;;;;;;4911485;29;20562;-82
2021/10/14 01:16:40;;;;;;;3.90;2.23;;;9.90;99.90;;;;;;4913027;29;20531;-80
2021/10/14 01:19:08;;;;;;;3.10;1.80;;;9.90;99.90;;;;;;4912822;29;20446;-80
2021/10/14 01:21:39;;;;;;;4.23;2.40;;;9.90;99.90;;;;;;4913049;29;20500;-80
2021/10/14 01:24:07;;;;;;;4.63;2.20;;;9.90;99.90;;;;;;4909469;29;20458;-81
2021/10/14 01:26:36;;;;;;;6.63;2.80;;;9.80;99.90;;;;;;4910004;29;20466;-80
2021/10/14 01:29:04;;;;;;;4.10;2.40;;;9.80;99.90;;;;;;4912702;29;20511;-81
2021/10/14 01:31:32;;;;;;;4.63;2.30;;;9.80;99.90;;;;;;4909408;29;20467;-82
2021/10/14 01:34:01;;;;;;;7.30;2.30;;;9.80;99.90;;;;;;4906326;29;20493;-81
2021/10/14 01:36:29;;;;;;;4.87;2.40;;;9.80;99.90;;;;;;4906270;29;20566;-81
2021/10/14 01:38:58;;;;;;;1.97;1.77;;;9.80;99.90;;;;;;4912170;29;20857;-81
2021/10/14 01:41:27;;;;;;;2.63;2.17;;;9.80;99.90;;;;;;4912348;29;20524;-81
2021/10/14 01:43:55;;;;;;;1.77;1.33;;;9.80;99.90;;;;;;4912430;29;20930;-82
2021/10/14 01:46:23;;;;;;;2.97;2.03;;;9.70;99.90;;;;;;4903402;29;20476;-80
2021/10/14 01:48:52;;;;;;;2.63;1.70;;;9.70;99.90;;;;;;4911612;29;20491;-82
2021/10/14 01:51:20;;;;;;;3.00;2.00;;;9.70;99.90;;;;;;4912349;29;20462;-81
2021/10/14 01:53:48;;;;;;;2.53;1.80;;;9.70;99.90;;;;;;4912148;29;20551;-81
2021/10/14 01:56:17;;;;;;;2.53;2.00;;;9.80;99.90;;;;;;4906253;29;20500;-81
2021/10/14 01:58:46;;;;;;;2.23;1.90;;;9.80;99.90;;;;;;4911609;29;20755;-81
2021/10/14 02:01:14;;;;;;;3.17;2.27;;;9.70;99.90;;;;;;4909799;29;20524;-82
2021/10/14 02:03:42;;;;;;;1.87;1.60;;;9.80;99.90;;;;;;4905656;29;20454;-82
2021/10/14 02:06:10;;;;;;;3.77;2.23;;;9.80;99.90;;;;;;4901846;29;20490;-81
2021/10/14 02:08:38;;;;;;;3.43;2.03;;;9.70;99.90;;;;;;4909855;29;20452;-81
2021/10/14 02:11:07;;;;;;;2.70;1.77;;;9.70;99.90;;;;;;4911949;29;20465;-82
2021/10/14 02:13:36;;;;;;;1.90;1.57;;;9.70;99.90;;;;;;4912962;29;20474;-80
2021/10/14 02:16:05;;;;;;;2.67;1.93;;;9.70;99.90;;;;;;4900102;29;20499;-81
2021/10/14 02:18:34;;;;;;;7.43;2.60;;;9.60;99.90;;;;;;4911456;29;20479;-81
2021/10/14 02:21:02;;;;;;;3.50;2.63;;;9.50;99.90;;;;;;4908178;29;20468;-81
2021/10/14 02:23:30;;;;;;;3.20;2.47;;;9.50;99.90;;;;;;4911460;29;20923;-81
2021/10/14 02:25:58;;;;;;;6.60;4.13;;;9.50;99.90;;;;;;4918356;29;20483;-80
2021/10/14 02:28:28;;;;;;;3.23;2.80;;;9.50;99.90;;;;;;4901357;29;20514;-81
2021/10/14 02:30:57;;;;;;;3.03;2.27;;;9.50;99.90;;;;;;4911093;29;20467;-80
2021/10/14 02:33:26;;;;;;;2.93;1.93;;;9.40;99.90;;;;;;4909573;29;20867;-82
2021/10/14 02:35:54;;;;;;;4.00;1.80;;;9.50;99.90;;;;;;4914722;29;20497;-81
2021/10/14 02:38:22;;;;;;;3.37;2.23;;;9.50;99.90;;;;;;4910136;29;20532;-80
2021/10/14 02:40:50;;;;;;;2.63;2.30;;;9.40;99.90;;;;;;4915065;29;20479;-81
2021/10/14 02:43:19;;;;;;;2.43;1.60;;;9.40;99.90;;;;;;4910457;29;20507;-81
2021/10/14 02:45:47;;;;;;;2.00;1.40;;;9.40;99.90;;;;;;4912237;29;20490;-80
2021/10/14 02:48:16;;;;;;;4.23;2.10;;;9.40;99.90;;;;;;4915679;29;20550;-80
2021/10/14 02:50:44;;;;;;;2.17;1.67;;;9.40;99.90;;;;;;4913056;29;20499;-81
2021/10/14 02:53:13;;;;;;;3.17;1.77;;;9.40;99.90;;;;;;4912595;29;20960;-80
2021/10/14 02:55:41;;;;;;;2.30;2.10;;;9.50;99.90;;;;;;4909441;29;20484;-82
2021/10/14 02:58:09;;;;;;;4.20;2.10;;;9.40;99.90;;;;;;4913042;29;20512;-81
2021/10/14 03:00:37;;;;;;;16.97;7.50;;;9.40;99.90;;;;;;4914289;29;20527;-81
2021/10/14 03:03:06;;;;;;;14.13;6.77;;;9.40;99.90;;;;;;4913416;29;20479;-81
2021/10/14 03:05:36;;;;;;;7.30;4.83;;;9.40;99.90;;;;;;4916540;29;20500;-82
2021/10/14 03:08:04;;;;;;;7.50;3.57;;;9.30;99.90;;;;;;4915058;29;20559;-82
2021/10/14 03:10:32;;;;;;;4.60;2.90;;;9.30;99.90;;;;;;4916412;29;20448;-82
2021/10/14 03:13:00;;;;;;;4.13;1.93;;;9.30;99.90;;;;;;4916430;29;20447;-82
2021/10/14 03:15:29;;;;;;;2.80;2.30;;;9.30;99.90;;;;;;4907184;29;20499;-82
2021/10/14 03:17:57;;;;;;;3.43;1.80;;;9.30;99.90;;;;;;4915290;29;20484;-82
2021/10/14 03:20:25;;;;;;;2.33;1.93;;;9.20;99.90;;;;;;4916285;29;21052;-81
2021/10/14 03:22:54;;;;;;;3.70;1.67;;;9.20;99.90;;;;;;4898349;29;20557;-81
2021/10/14 03:25:22;;;;;;;1.63;1.53;;;9.20;99.90;;;;;;4929092;29;20475;-82
2021/10/14 03:27:51;;;;;;;3.10;1.47;;;9.20;99.90;;;;;;4912534;29;20458;-81
2021/10/14 03:30:19;;;;;;;2.17;1.67;;;9.20;99.90;;;;;;4925189;29;20466;-82
2021/10/14 03:32:47;;;;;;;3.10;1.57;;;9.20;99.90;;;;;;4916332;29;20471;-81
2021/10/14 03:35:15;;;;;;;3.03;1.77;;;9.20;99.90;;;;;;4914954;29;20542;-80
2021/10/14 03:37:46;;;;;;;3.37;1.60;;;9.20;99.90;;;;;;4915980;29;20468;-82
2021/10/14 03:40:16;;;;;;;6.43;2.20;;;9.20;99.90;;;;;;4912095;29;20987;-83
2021/10/14 03:42:44;;;;;;;3.47;2.37;;;9.10;99.90;;;;;;4914157;29;20503;-82
2021/10/14 03:45:12;;;;;;;1.80;1.43;;;8.90;99.90;;;;;;4913173;29;20495;-83
2021/10/14 03:47:40;;;;;;;1.90;1.60;;;9.00;99.90;;;;;;4913589;29;20459;-82
2021/10/14 03:50:09;;;;;;;1.70;1.60;;;9.00;99.90;;;;;;4915425;29;20460;-81
2021/10/14 03:52:38;;;;;;;2.57;1.93;;;9.10;99.90;;;;;;4912656;29;20444;-83
2021/10/14 03:55:07;;;;;;;3.00;1.47;;;9.10;99.90;;;;;;4914913;29;20484;-82
2021/10/14 03:57:37;;;;;;;3.10;1.80;;;9.10;99.90;;;;;;4912741;29;20460;-82
2021/10/14 04:00:06;;;;;;;2.00;1.77;;;9.10;99.90;;;;;;4913684;29;20569;-82
2021/10/14 04:02:34;;;;;;;1.60;1.50;;;9.10;99.90;;;;;;4915444;29;20474;-82
2021/10/14 04:05:04;;;;;;;2.70;1.80;;;9.10;99.90;;;;;;4916166;29;20480;-82
2021/10/14 04:07:32;;;;;;;1.97;1.70;;;9.00;99.90;;;;;;4911000;29;20468;-83
2021/10/14 04:10:00;;;;;;;3.23;1.80;;;9.00;99.90;;;;;;4908623;29;20460;-81
2021/10/14 04:12:29;;;;;;;2.13;1.43;;;9.00;99.90;;;;;;4914231;29;20454;-81
2021/10/14 04:14:58;;;;;;;4.00;2.10;;;9.00;99.90;;;;;;4912652;29;20484;-80
2021/10/14 04:17:26;;;;;;;3.80;1.77;;;9.00;99.90;;;;;;4906319;29;20882;-78
2021/10/14 04:19:54;;;;;;;1.90;1.50;;;9.00;99.90;;;;;;4915048;29;20530;-78
2021/10/14 04:22:22;;;;;;;1.90;1.70;;;9.00;99.90;;;;;;4914545;29;20440;-77
2021/10/14 04:24:50;;;;;;;1.70;1.60;;;9.00;99.90;;;;;;4913891;29;20488;-77
2021/10/14 04:27:19;;;;;;;4.00;1.97;;;8.90;99.90;;;;;;4914840;29;20460;-80
2021/10/14 04:29:47;;;;;;;3.53;1.70;;;8.90;99.90;;;;;;4910787;29;20500;-80
2021/10/14 04:32:17;;;;;;;2.23;1.60;;;8.90;99.90;;;;;;4909866;29;20880;-82
2021/10/14 04:34:45;;;;;;;3.00;2.67;;;8.90;99.90;;;;;;4912813;29;20479;-76
2021/10/14 04:37:13;;;;;;;2.13;1.70;;;8.80;99.90;;;;;;4913150;29;20890;-79
2021/10/14 04:39:41;;;;;;;2.60;2.33;;;8.80;99.90;;;;;;4927670;29;20483;-78
2021/10/14 04:42:09;;;;;;;2.47;1.60;;;8.90;99.90;;;;;;4910795;29;20451;-78
2021/10/14 04:44:38;;;;;;;3.53;2.10;;;8.90;99.90;;;;;;4914634;29;20834;-79
2021/10/14 04:47:06;;;;;;;2.47;1.70;;;8.90;99.90;;;;;;4913001;29;20475;-78
2021/10/14 04:49:36;;;;;;;5.40;1.30;;;8.90;99.90;;;;;;4913817;29;20204;-78
2021/10/14 04:52:04;;;;;;;1.40;1.30;;;9.20;99.90;;;;;;4913725;29;20800;-79
2021/10/14 04:54:32;;;;;;;3.47;2.03;;;9.00;99.90;;;;;;4912851;29;20477;-78
2021/10/14 04:57:00;;;;;;;1.90;1.30;;;9.00;99.90;;;;;;4910872;29;20455;-79
2021/10/14 04:59:28;;;;;;;1.83;1.73;;;9.00;99.90;;;;;;4911348;29;20472;-77
2021/10/14 05:01:57;;;;;;;4.30;1.67;;;9.00;99.90;;;;;;4910942;29;20450;-79
2021/10/14 05:04:25;;;;;;;2.43;1.67;;;9.00;99.90;;;;;;4908721;29;21067;-78
2021/10/14 05:06:54;;;;;;;1.70;1.60;;;9.00;99.90;;;;;;4912712;29;20471;-78
2021/10/14 05:09:23;;;;;;;1.70;1.60;;;9.00;99.90;;;;;;4911764;29;20460;-79
2021/10/14 05:11:51;;;;;;;2.40;1.50;;;9.00;99.90;;;;;;4913512;29;20473;-78
2021/10/14 05:14:19;;;;;;;1.60;1.50;;;9.00;99.90;;;;;;4912996;29;20451;-79
2021/10/14 05:16:47;;;;;;;2.70;1.70;;;9.00;99.90;;;;;;4910830;29;20476;-78
2021/10/14 05:19:15;;;;;;;3.20;1.80;;;9.00;99.90;;;;;;4910475;29;20471;-80
2021/10/14 05:21:43;;;;;;;3.00;2.17;;;9.00;99.90;;;;;;4911443;29;20479;-80
2021/10/14 05:24:13;;;;;;;3.10;1.93;;;9.00;99.90;;;;;;4910721;29;20969;-79
2021/10/14 05:26:41;;;;;;;1.50;1.40;;;9.10;99.90;;;;;;4896925;29;20460;-78
2021/10/14 05:29:09;;;;;;;2.80;2.37;;;9.00;99.90;;;;;;4913599;29;20459;-80
2021/10/14 05:31:38;;;;;;;1.70;1.60;;;9.10;99.90;;;;;;4913865;29;20504;-78
2021/10/14 05:34:06;;;;;;;2.23;1.60;;;9.10;99.90;;;;;;4902122;29;20475;-78
2021/10/14 05:36:34;;;;;;;3.23;2.20;;;9.10;99.90;;;;;;4897657;29;20483;-78
2021/10/14 05:39:02;;;;;;;4.07;2.00;;;9.10;99.90;;;;;;4912940;29;20621;-79
2021/10/14 05:41:32;;;;;;;3.00;2.07;;;9.10;99.90;;;;;;4913380;29;20487;-78
2021/10/14 05:44:00;;;;;;;2.20;1.70;;;9.10;99.90;;;;;;4908542;29;20488;-80
2021/10/14 05:46:28;;;;;;;3.47;2.75;;;9.10;99.90;;;;;;4904094;29;20474;-79
2021/10/14 05:48:56;;;;;;;3.20;1.97;;;9.20;99.90;;;;;;4922914;29;20208;-79
2021/10/14 05:51:24;;;;;;;2.47;1.90;;;9.20;99.90;;;;;;4913634;29;20457;-81
2021/10/14 05:53:52;;;;;;;3.37;1.60;;;9.20;99.90;;;;;;4933495;29;20460;-79
2021/10/14 05:56:23;;;;;;;3.60;1.73;;;9.20;99.90;;;;;;4915615;29;20473;-80
2021/10/14 05:58:53;;;;;;;2.50;1.90;;;9.20;99.90;;;;;;4913373;29;20444;-82
2021/10/14 06:01:21;;;;;;;2.63;1.87;;;9.30;99.90;;;;;;4911388;29;20486;-80
2021/10/14 06:03:50;;;;;;;2.27;1.80;;;9.30;99.90;;;;;;4927934;29;20495;-82
2021/10/14 06:06:18;;;;;;;1.97;1.73;;;9.30;99.90;;;;;;4914093;29;20501;-80
2021/10/14 06:08:46;;;;;;;2.43;2.00;;;9.30;99.90;;;;;;4915789;29;20467;-81
2021/10/14 06:11:14;;;;;;;2.30;1.80;;;9.30;99.90;;;;;;4916199;29;20457;-79
2021/10/14 06:13:42;;;;;;;4.60;2.10;;;9.30;99.90;;;;;;4915142;29;20507;-81
2021/10/14 06:16:12;;;;;;;2.90;1.90;;;9.30;99.90;;;;;;4916574;29;20468;-79
2021/10/14 06:18:40;;;;;;;2.93;1.70;;;9.30;99.90;;;;;;4913929;29;20539;-80
2021/10/14 06:21:08;;;;;;;2.00;1.50;;;9.30;99.90;;;;;;4918623;29;20465;-81
2021/10/14 06:23:37;;;;;;;3.53;1.93;;;9.40;99.90;;;;;;4910913;29;20457;-82
2021/10/14 06:26:05;;;;;;;1.30;1.20;;;9.40;99.90;;;;;;4918015;29;20489;-81
2021/10/14 06:28:33;;;;;;;2.13;1.83;;;9.40;99.90;;;;;;4918406;29;20533;-81
2021/10/14 06:31:04;;;;;;;3.03;1.80;;;9.50;99.90;;;;;;4917454;29;20469;-81
2021/10/14 06:33:34;;;;;;;2.90;1.43;;;9.50;99.90;;;;;;4937190;29;20577;-81
2021/10/14 06:36:02;;;;;;;3.63;1.80;;;9.60;99.90;;;;;;4909063;29;20940;-82
2021/10/14 06:38:31;;;;;;;2.90;2.53;;;9.60;99.90;;;;;;4916514;29;20469;-82
2021/10/14 06:40:59;;;;;;;2.93;2.63;;;9.60;99.90;;;;;;4931914;29;20471;-81
2021/10/14 06:43:27;;;;;;;5.33;2.10;;;9.70;99.90;;;;;;4909514;29;20526;-81
2021/10/14 06:45:55;;;;;;;3.03;2.83;;;9.70;99.90;;;;;;4918455;29;20485;-81
2021/10/14 06:48:23;;;;;;;5.50;2.00;;;9.70;99.90;;;;;;4909014;29;20473;-82
2021/10/14 06:50:53;;;;;;;3.70;1.70;;;9.70;99.90;;;;;;4920244;29;20466;-80
2021/10/14 06:53:21;;;;;;;2.57;1.80;;;9.70;99.90;;;;;;4916331;29;20515;-81
2021/10/14 06:55:49;;;;;;;4.37;2.23;;;9.80;99.90;;;;;;4919177;29;20475;-81
2021/10/14 06:58:18;;;;;;;2.63;1.57;;;9.80;99.90;;;;;;4917048;29;20932;-82
2021/10/14 07:00:46;;;;;;;4.22;1.75;;;9.80;99.90;;;;;;4916697;29;20458;-81
2021/10/14 07:03:14;;;;;;;2.00;1.90;;;9.90;99.90;;;;;;4918172;29;20218;-82
2021/10/14 07:05:43;;;;;;;2.93;1.63;;;10.00;99.90;;;;;;4914669;29;21010;-81
2021/10/14 07:08:12;;;;;;;2.43;2.13;;;10.10;99.90;;;;;;4918733;29;20459;-80
2021/10/14 07:10:45;;;;;;;2.60;1.60;;;10.10;99.90;;;;;;4917603;29;20460;-81
2021/10/14 07:13:13;;;;;;;2.03;1.80;;;10.10;99.90;;;;;;4917708;29;20465;-80
2021/10/14 07:15:42;;;;;;;1.90;1.70;;;10.20;99.90;;;;;;4913032;29;20529;-82
2021/10/14 07:18:10;;;;;;;3.40;1.87;;;10.20;99.90;;;;;;4918729;29;20456;-83
2021/10/14 07:20:39;;;;;;;1.73;1.50;;;10.30;99.90;;;;;;4916420;29;20456;-81
2021/10/14 07:23:10;;;;;;;3.72;2.25;;;10.30;99.90;;;;;;4914902;29;21049;-81
2021/10/14 07:25:41;;;;;;;4.90;2.67;;;10.30;99.90;;;;;;4916438;29;20225;-82
2021/10/14 07:28:09;;;;;;;2.83;1.90;;;10.50;99.90;;;;;;4917976;29;21221;-81
2021/10/14 07:30:39;;;;;;;2.33;2.00;;;10.60;99.90;;;;;;4914445;29;20484;-82
2021/10/14 07:33:07;;;;;;;2.20;2.00;;;10.70;99.90;;;;;;4916280;29;21074;-81
2021/10/14 07:35:37;;;;;;;1.83;1.57;;;10.70;99.90;;;;;;4903183;29;21016;-82
2021/10/14 07:38:09;;;;;;;1.43;1.33;;;10.80;99.90;;;;;;4905704;29;20893;-81
2021/10/14 07:40:41;;;;;;;1.70;1.60;;;10.80;99.90;;;;;;4915508;29;20463;-81
2021/10/14 07:43:11;;;;;;;1.97;1.70;;;10.90;99.90;;;;;;4917583;29;20461;-81
2021/10/14 07:45:41;;;;;;;2.63;2.10;;;10.90;99.90;;;;;;4916453;29;20840;-81
2021/10/14 07:48:09;;;;;;;3.30;1.67;;;11.00;99.90;;;;;;4917259;29;20457;-81
2021/10/14 07:50:37;;;;;;;2.63;1.70;;;11.00;99.90;;;;;;4915439;29;20513;-82
2021/10/14 07:53:13;;;;;;;5.47;1.40;;;11.10;99.90;;;;;;4917801;29;20473;-82
2021/10/14 07:55:44;;;;;;;2.10;1.57;;;11.20;99.90;;;;;;4913926;29;20480;-81
2021/10/14 07:58:12;;;;;;;2.17;1.90;;;11.20;99.90;;;;;;4917969;29;20549;-81
2021/10/14 08:00:42;;;;;;;1.60;1.40;;;11.30;99.90;;;;;;4916241;29;20460;-82
2021/10/14 08:03:11;;;;;;;4.10;1.80;;;11.40;99.90;;;;;;4927103;29;20472;-82
2021/10/14 08:05:40;;;;;;;5.13;2.27;;;11.50;99.90;;;;;;4916086;29;20501;-82
2021/10/14 08:08:09;;;;;;;2.50;1.70;;;11.40;99.90;;;;;;4913150;29;20454;-79
2021/10/14 08:10:37;;;;;;;1.90;1.40;;;11.50;99.90;;;;;;4911621;29;20450;-83
2021/10/14 08:13:13;;;;;;;2.47;1.33;;;11.60;99.90;;;;;;4908891;29;20482;-81
2021/10/14 08:15:44;;;;;;;1.30;1.20;;;11.70;99.90;;;;;;4916353;29;21077;-82
2021/10/14 08:18:12;;;;;;;1.63;1.53;;;11.90;99.90;;;;;;4916251;29;20462;-82
2021/10/14 08:20:41;;;;;;;2.40;1.97;;;12.00;99.90;;;;;;4917115;29;20488;-83
2021/10/14 08:23:09;;;;;;;3.37;1.63;;;12.10;99.90;;;;;;4916559;29;20946;-82
2021/10/14 08:25:38;;;;;;;2.67;1.70;;;12.20;99.90;;;;;;4915329;29;20478;-81
2021/10/14 08:28:07;;;;;;;2.57;1.30;;;12.30;99.90;;;;;;4916060;29;20461;-83
2021/10/14 08:30:36;;;;;;;2.40;1.37;;;12.40;99.90;;;;;;4904826;29;20467;-81
2021/10/14 08:33:04;;;;;;;1.30;1.20;;;12.60;99.90;;;;;;4897874;29;20851;-83
2021/10/14 08:35:36;;;;;;;1.50;1.40;;;12.80;99.90;;;;;;4897668;29;20486;-82
2021/10/14 08:38:05;;;;;;;1.50;1.40;;;12.90;99.90;;;;;;4911441;29;20454;-83
2021/10/14 08:40:34;;;;;;;1.57;1.00;;;13.10;99.90;;;;;;4912997;29;20968;-83
2021/10/14 08:43:05;;;;;;;1.23;1.10;;;13.30;99.90;;;;;;4915625;29;20473;-82
2021/10/14 08:45:37;;;;;;;1.30;1.07;;;13.50;99.90;;;;;;4915762;29;20483;-82
2021/10/14 08:48:07;;;;;;;1.30;1.20;;;13.90;99.90;;;;;;4915909;29;20480;-81
2021/10/14 08:50:37;;;;;;;1.83;1.30;;;14.20;99.90;;;;;;4915347;29;20475;-83
2021/10/14 08:53:06;;;;;;;2.00;1.40;;;14.50;99.90;;;;;;4915021;29;20445;-82
2021/10/14 08:55:38;;;;;;;2.10;1.30;;;14.80;99.90;;;;;;4916842;29;20477;-83
2021/10/14 08:58:09;;;;;;;1.40;1.30;;;15.10;99.90;;;;;;4917355;29;20540;-83
2021/10/14 09:00:42;;;;;;;2.20;1.20;;;15.40;99.90;;;;;;4916331;29;20435;-83
2021/10/14 09:03:25;;;;;;;1.47;1.13;;;15.70;99.90;;;;;;4914537;29;20446;-83
2021/10/14 09:05:53;;;;;;;2.77;1.30;;;16.10;99.90;;;;;;4896699;29;20943;-83
2021/10/14 09:08:34;;;;;;;2.93;1.47;;;16.30;99.90;;;;;;4915697;29;20446;-82
2021/10/14 09:11:11;;;;;;;1.20;1.10;;;16.70;99.90;;;;;;4914875;29;20521;-83
2021/10/14 09:13:45;;;;;;;1.27;1.10;;;17.10;99.90;;;;;;4898245;29;20439;-82
2021/10/14 09:16:26;;;;;;;2.37;1.20;;;17.30;99.90;;;;;;4915880;29;20473;-83
2021/10/14 09:18:56;;;;;;;1.97;1.30;;;17.70;99.90;;;;;;4916064;29;20454;-83
2021/10/14 09:21:27;;;;;;;2.53;1.37;;;17.80;99.90;;;;;;4905178;29;20459;-82
2021/10/14 09:23:56;;;;;;;1.30;1.07;;;18.10;99.90;;;;;;4896263;29;21242;-83
2021/10/14 09:26:32;;;;;;;1.30;1.20;;;18.40;99.90;;;;;;4910116;29;21151;-83
2021/10/14 09:29:11;;;;;;;1.20;1.10;;;18.70;99.90;;;;;;4915861;29;20447;-83
2021/10/14 09:31:52;;;;;;;3.50;1.10;;;19.00;99.90;;;;;;4915654;29;20456;-83
2021/10/14 09:34:34;;;;;;;2.83;1.60;;;19.40;99.90;;;;;;4915382;29;20453;-84
2021/10/14 09:37:05;;;;;;;1.33;1.10;;;19.60;99.90;;;;;;4914789;29;20456;-83
2021/10/14 09:39:34;;;;;;;2.17;1.20;;;19.90;99.90;;;;;;4896876;29;20468;-83
2021/10/14 09:42:02;;;;;;;1.50;1.40;;;20.10;99.90;;;;;;4912868;29;20554;-83
2021/10/14 09:44:50;;;;;;;1.00;0.90;;;20.30;99.90;;;;;;4917770;29;20558;-83
2021/10/14 09:47:20;;;;;;;2.43;1.17;;;20.50;99.90;;;;;;4919985;29;20488;-84
2021/10/14 09:49:48;;;;;;;1.20;1.10;;;20.60;99.90;;;;;;4919667;29;20528;-83
2021/10/14 09:52:17;;;;;;;1.57;1.10;;;20.80;99.90;;;;;;4917861;29;20457;-83
2021/10/14 09:54:45;;;;;;;1.07;0.87;;;20.90;99.90;;;;;;4919047;29;20584;-84
2021/10/14 09:57:15;;;;;;;1.33;1.23;;;21.00;99.90;;;;;;4918296;29;21025;-83
2021/10/14 09:59:46;;;;;;;1.20;0.87;;;21.20;99.90;;;;;;4919735;29;20441;-83
2021/10/14 10:02:15;;;;;;;1.70;1.20;;;21.20;99.90;;;;;;4919461;29;20445;-83
2021/10/14 10:04:45;;;;;;;1.33;1.10;;;21.30;99.90;;;;;;4919619;29;20520;-82
2021/10/14 10:07:14;;;;;;;2.60;1.73;;;21.20;99.90;;;;;;4918839;29;21363;-83
2021/10/14 10:09:43;;;;;;;2.90;1.37;;;21.10;99.90;;;;;;4919099;29;20509;-84
2021/10/14 10:12:12;;;;;;;1.30;1.20;;;21.30;99.90;;;;;;4918196;29;20516;-83
2021/10/14 10:14:40;;;;;;;1.63;1.10;;;21.50;99.90;;;;;;4918783;29;20473;-84
2021/10/14 10:17:11;;;;;;;1.10;1.00;;;21.70;99.90;;;;;;4919693;29;20468;-84
2021/10/14 10:19:46;;;;;;;1.27;1.00;;;21.90;99.90;;;;;;4917574;29;20462;-82
2021/10/14 10:22:49;;;;;;;1.80;1.20;;;22.30;99.90;;;;;;4919213;29;20438;-84
2021/10/14 10:25:20;;;;;;;1.77;1.20;;;22.70;99.90;;;;;;4912100;29;20821;-83
2021/10/14 10:27:48;;;;;;;1.50;0.80;;;22.80;99.90;;;;;;4914779;29;20482;-84
2021/10/14 10:30:29;;;;;;;1.60;0.90;;;23.00;99.90;;;;;;4919392;29;20461;-84
2021/10/14 10:32:57;;;;;;;1.43;1.03;;;23.10;99.90;;;;;;4918398;29;20898;-84
2021/10/14 10:35:45;;;;;;;1.00;0.80;;;23.10;99.90;;;;;;4917891;29;20501;-84
2021/10/14 10:38:14;;;;;;;1.20;1.00;;;23.00;99.90;;;;;;4916081;29;20490;-84
2021/10/14 10:40:44;;;;;;;2.40;1.00;;;22.60;99.90;;;;;;4909974;29;20457;-86
2021/10/14 10:43:15;;;;;;;1.53;1.07;;;22.40;99.90;;;;;;4916832;29;20468;-85
2021/10/14 10:45:52;;;;;;;1.30;1.20;;;22.20;99.90;;;;;;4929962;29;20478;-84
2021/10/14 10:48:35;;;;;;;1.00;0.90;;;21.90;99.90;;;;;;4918650;29;20477;-84
2021/10/14 10:51:06;;;;;;;3.23;1.40;;;21.70;99.90;;;;;;4916685;29;20767;-84
2021/10/14 10:53:39;;;;;;;1.53;1.10;;;21.50;99.90;;;;;;4915322;29;20882;-84
2021/10/14 10:56:26;;;;;;;3.00;1.17;;;21.20;99.90;;;;;;4919865;29;20496;-85
2021/10/14 10:58:56;;;;;;;1.63;1.33;;;21.00;99.90;;;;;;4917232;29;20464;-84
2021/10/14 11:01:24;;;;;;;1.40;1.30;;;20.80;99.90;;;;;;4914497;29;21043;-84
2021/10/14 11:03:58;;;;;;;1.20;1.10;;;20.60;99.90;;;;;;4921323;29;20479;-83
2021/10/14 11:06:30;;;;;;;1.73;1.23;;;20.50;99.90;;;;;;4910568;29;20571;-84
2021/10/14 11:09:04;;;;;;;7.50;1.30;;;20.50;99.90;;;;;;4919896;29;20465;-84
2021/10/14 11:11:34;;;;;;;1.43;1.10;;;20.50;99.90;;;;;;4920454;29;20499;-83
2021/10/14 11:14:04;;;;;;;2.17;1.30;;;20.50;99.90;;;;;;4918660;29;20460;-84
2021/10/14 11:16:32;;;;;;;1.43;1.30;;;20.60;99.90;;;;;;4919631;29;20486;-83
2021/10/14 11:19:01;;;;;;;1.83;1.27;;;20.60;99.90;;;;;;4912436;29;20470;-85
2021/10/14 11:21:42;;;;;;;2.90;1.10;;;20.60;99.90;;;;;;4911125;29;20524;-83
2021/10/14 11:24:11;;;;;;;2.03;1.20;;;20.60;99.90;;;;;;4930087;29;20462;-84
2021/10/14 11:26:41;;;;;;;4.10;1.70;;;20.60;99.90;;;;;;4915798;29;20529;-85
2021/10/14 11:29:12;;;;;;;2.47;1.37;;;20.60;99.90;;;;;;4918414;29;20469;-83
2021/10/14 11:31:42;;;;;;;1.80;1.30;;;20.60;99.90;;;;;;4920565;29;20469;-83
2021/10/14 11:34:13;;;;;;;2.23;1.10;;;20.60;99.90;;;;;;4913669;29;20456;-83
2021/10/14 11:36:52;;;;;;;1.67;1.37;;;20.70;99.90;;;;;;4916256;29;20997;-81
2021/10/14 11:39:23;;;;;;;3.77;2.13;;;20.60;99.90;;;;;;4927938;29;20457;-83
2021/10/14 11:41:56;;;;;;;1.40;1.30;;;20.60;99.90;;;;;;4916823;29;20455;-82
2021/10/14 11:44:27;;;;;;;2.40;1.37;;;20.50;99.90;;;;;;4912744;29;20466;-84
2021/10/14 11:46:57;;;;;;;2.33;1.70;;;20.50;99.90;;;;;;4916085;29;20485;-83
2021/10/14 11:49:25;;;;;;;1.70;1.57;;;20.60;99.90;;;;;;4917233;29;20541;-84
2021/10/14 11:51:55;;;;;;;3.43;1.43;;;20.50;99.90;;;;;;4910753;29;20469;-84
2021/10/14 11:54:23;;;;;;;2.00;1.40;;;20.50;99.90;;;;;;4914752;29;22384;-83
2021/10/14 11:56:53;;;;;;;3.63;1.87;;;20.40;99.90;;;;;;4913174;29;20466;-82
2021/10/14 11:59:24;;;;;;;4.90;1.37;;;20.40;99.90;;;;;;4909854;29;20493;-82
2021/10/14 12:01:56;;;;;;;4.50;1.70;;;20.30;99.90;;;;;;4914427;29;20513;-83
2021/10/14 12:04:27;;;;;;;1.90;1.30;;;20.20;99.90;;;;;;4911585;29;20457;-83
2021/10/14 12:06:57;;;;;;;1.93;1.20;;;20.10;99.90;;;;;;4917420;29;20474;-84
2021/10/14 12:09:39;;;;;;;1.40;1.30;;;20.10;99.90;;;;;;4909598;29;20542;-83
2021/10/14 12:12:08;;;;;;;2.50;1.40;;;20.10;99.90;;;;;;4919189;29;20537;-83
2021/10/14 12:14:37;;;;;;;1.73;1.50;;;20.20;99.90;;;;;;4915952;29;20521;-82
2021/10/14 12:17:08;;;;;;;2.17;1.97;;;20.20;99.90;;;;;;4915380;29;21010;-83
2021/10/14 12:19:41;;;;;;;1.40;1.30;;;20.20;99.90;;;;;;4914402;29;20459;-83
2021/10/14 12:22:13;;;;;;;1.70;1.30;;;20.20;99.90;;;;;;4911138;29;20457;-84
2021/10/14 12:24:57;;;;;;;2.43;1.20;;;20.20;99.90;;;;;;4914422;29;20470;-83
2021/10/14 12:27:44;;;;;;;1.77;1.40;;;20.20;99.90;;;;;;4916914;29;20993;-82
2021/10/14 12:30:23;;;;;;;2.17;1.70;;;20.00;99.90;;;;;;4911590;29;20462;-83
2021/10/14 12:32:53;;;;;;;1.40;1.30;;;20.30;99.90;;;;;;4909302;29;21040;-84
2021/10/14 12:35:25;;;;;;;2.80;1.30;;;20.20;99.90;;;;;;4929428;29;20505;-83
2021/10/14 12:38:09;;;;;;;1.30;1.20;;;20.10;99.90;;;;;;4915819;29;20525;-84
2021/10/14 12:40:42;;;;;;;1.63;1.53;;;20.10;99.90;;;;;;4914304;29;20522;-83
2021/10/14 12:43:18;;;;;;;2.63;1.23;;;20.10;99.90;;;;;;4915803;29;20470;-84
2021/10/14 12:48:49;;;;;;;2.53;1.80;;;20.10;99.90;;;;;;4906210;29;20500;-84
2021/10/14 12:51:24;;;;;;;2.03;1.40;;;20.10;99.90;;;;;;4914852;29;20469;-83
2021/10/14 12:53:59;;;;;;;3.23;2.20;;;20.00;99.90;;;;;;4914870;29;20465;-84
2021/10/14 12:56:35;;;;;;;1.20;1.10;;;20.00;99.90;;;;;;4916368;29;20522;-83
2021/10/14 12:59:05;;;;;;;1.33;1.23;;;20.00;99.90;;;;;;4915509;29;20458;-83
2021/10/14 13:01:35;;;;;;;2.87;1.70;;;19.90;99.90;;;;;;4910965;29;20454;-83
2021/10/14 13:04:04;;;;;;;2.87;1.57;;;20.00;99.90;;;;;;4912439;29;20473;-83
2021/10/14 13:06:32;;;;;;;1.20;1.10;;;19.90;99.90;;;;;;4913924;29;20568;-84
2021/10/14 13:09:04;;;;;;;1.50;1.17;;;19.90;99.90;;;;;;4912561;29;20478;-82